Create Custom Reports and Graphics: Custom Report

Latest Observations

Map

15 Minute Data

Lodi West

Latest Observations

15 Minute Data | America/Los_Angeles
as of 5/26/19 4:35 PM PDT
Station Date Time Temp (°F) Dew Pt (°F) RH (%) Wind Dir (°) Wind Spd (mph) Wind Gust (mph) Latest Rain (In) Daily Rain (In) Daily Min Temp (°F) Daily Max Temp (°F)
Utter - Wilson 5/26/19 1630 58.9   14.2 52.1   5.0 78   21 E | 91 3.7   0.5 6.1   4.9 0.00 0.17 49.7   3.5 60.6   13.7
Clarksburg (CLK) 5/26/19 1630 56.1   14.5 53.6   4.3 91   27 SW | 226 1.3   1.5 6.4   2.7 0.05 0.20 48.7   4.5 60.8   10.7
Gorter - Wilson 5/26/19 1630 58.3   13.7 51.6   5.6 78   19 WSW | 253 6.2   1.4 11.0   0.1 0.00 0.08 49.6   3.5 62.0   11.4
Hood (HOD) 5/26/19 1630 58.8   13.5 50.9   5.5 75   18 WSW | 251 6.1   1.8 12.2   2.5 0.00 0.12 50.7   2.8 60.6   12.4
Courtland-C3 5/26/19 1630 60.0   11.2 47.5   7.1 63   8 W | 259 12.2   6.0 20.4   7.2 0.00 0.06 50.2   1.4 62.5   9.4
Pacific Fruit 5/3/19 1700 83.2   1.5 44.1   1.0 25   0 W | 259 4.8   0.0 9.3   0.8 0.00 0.00 45.3   1.6 85.6   3.1
Ryer Island South (RIS) 5/26/19 1630 62.2   9.8 45.9   6.5 55   5 W | 264 8.6   5.8 16.7   6.5 0.00 0.05 51.8   1.5 64.2   10.7
Guard Rd (Lodi WSW) 5/26/19 1630 62.1   13.7 46.0   8.5 56   8 W | 264 6.7   3.8 14.5   5.4 0.00 0.05 51.2   4.7 66.0   10.7
Claussen 5/26/19 1630 64.8   10.5 43.8   9.9 46   1 W | 260 10.6   5.4 22.1   9.1 0.00 0.03 53.0   2.0 67.5   10.8
Max     64.8 53.6 91 - 12.2 22.1 0.05 0.20 53.0 67.5
Avg     60.2 48.9 68 - 6.9 13.7 0.01 - - -
Min     56.1 43.8 46 - 1.3 6.1 0.00 0.03 48.7 60.6

Lodi Central

Latest Observations

15 Minute Data | America/Los_Angeles
as of 5/26/19 4:35 PM PDT
Station Date Time Temp (°F) Dew Pt (°F) RH (%) Wind Dir (°) Wind Spd (mph) Wind Gust (mph) Latest Rain (In) Daily Rain (In) Daily Min Temp (°F) Daily Max Temp (°F)
Galt West (GAW) 5/26/19 1630 63.3   8.3 47.6   8.2 57   1 WSW | 246 6.5   2.1 14.2   5.0 0.00 0.05 50.5   2.9 64.7   7.3
Valley Oak 5/26/19 1630 62.0   9.7 43.7   8.5 51   1 WSW | 252 7.4   2.3 14.3   3.5 0.00 0.04 51.1   3.2 62.9   9.7
Thornton 5/26/19 1630 63.4   9.2 45.4   8.4 52   0 W | 267 6.8   3.2 15.5   5.0 0.00 0.03 51.3   3.6 64.1   8.8
Kost Rd 5/26/19 1600 60.9   9.8 47.7   8.2 62   2 WSW | 250 6.9   2.7 11.7   3.4 0.00 0.04 51.2   1.9 64.1   8.0
DeVries Road-North 5/26/19 1630 63.4   8.2 44.9   9.9 51   5 W | 264 6.8   3.2 12.3   4.8 0.00 0.04 50.6   2.9 64.9   8.3
Lodi (LangeTwins) 5/26/19 1630 63.1   9.3 43.2   11.7 48   6 WSW | 258 7.9   4.4 13.5   5.0 0.00 0.05 51.4   1.8 64.2   9.2
Acampo (ACP) 5/26/19 1630 63.4   9.6 41.1   11.8 44   5 W | 260 7.3   3.8 12.5   4.4 0.00 0.02 50.8   1.1 64.3   9.0
Lodi West (MDW) 5/26/19 1630 64.4   9.5 45.0   9.2 49   1 W | 271 4.9   2.0 12.3   2.6 0.00 0.03 50.7   1.2 66.3   8.4
Max     64.4 47.7 62 - 7.9 15.5 0.00 0.05 51.4 66.3
Avg     63.0 44.8 52 - 6.8 13.3 0.00 - - -
Min     60.9 41.1 44 - 4.9 11.7 0.00 0.02 50.5 62.9

Latest Observation

19 Stations

15 Minute Data | America/Los_Angeles
as of 5/26/19 4:35 PM PDT
Station Date Time Temp (°F) Dew Pt (°F) RH (%) Wind Spd (mph) Wind Dir (°) Wind Gust (mph) Latest Rain (In) Daily Rain (In) Daily Min Temp (°F) Daily Max Temp (°F)
Borden Hills 5/26/19 1630 54.7   17.9 49.3   5.8 82   28 6.8   1.1 ESE | 103 9.4   3.9 0.00 0.04 52.6   1.6 62.2   11.7
Collegeville (COL) 5/26/19 1630 64.4   9.6 41.2   10.2 43   3 11.5   6.3 NW | 307 20.4   8.7 0.00 0.04 51.7   0.1 67.0   8.9
Galt-East (EGT) 5/26/19 1630 55.6   15.9 46.5   7.6 71   17 7.6   1.8 E | 79 13.6   0.2 0.00 0.03 51.3   1.4 64.7   8.1
Escalon (ESL) 5/26/19 1630 62.4   14.5 45.1   6.8 53   11 2.9   0.2 N | 1 7.5   0.6 0.00 0.03 51.8   0.1 66.5   11.2
Victor - N (Katusha) 5/26/19 1630 64.2   7.8 41.5   10.5 43   6 5.9   1.5 W | 279 11.5   1.7 0.00 0.04 50.5   2.0 65.7   7.0
Gilbeau Ranch 5/26/19 1630 61.7   9.3 46.5   6.8 57   4 3.4   1.6 ENE | 59 9.0   0.9 0.00 0.04 51.4   1.3 64.2   7.6
Lodi 5/26/19 1330 61.9   7.5 41.0   9.9 46   6 4.7   0.3 NNE | 23 8.6   2.2 0.00 0.04 51.3   2.4 64.5   5.5
Linden (LIN) 5/26/19 1630 63.7   9.8 47.3   5.8 55   6 5.7   1.8 WNW | 301 12.4   5.0 0.00 0.03 51.0   1.7 64.6   10.0
Live Oak (LIV) 5/26/19 1630 69.4   10.2 43.3   11.0 39   3 5.0   2.1 W | 272 10.2   3.5 0.00 0.04 49.9   0.8 71.3   9.1
Lockeford (LOC) 5/26/19 1630 57.6   14.0 - - 7.6   2.8 ENE | 73 13.8   1.7 0.00 0.03 51.4   1.8 64.9   8.5
Lone Oak-L28 5/26/19 1630 54.7   17.6 50.1   2.6 84   34 2.5   2.9 NE | 34 5.8   6.2 0.00 0.20 49.8   1.0 63.3   10.5
Sheldon (SHL) 5/26/19 1630 60.5   11.2 44.6   10.0 56   1 4.4   0.7 W | 263 8.1   0.0 0.00 0.08 50.4   0.1 64.2   8.0
Sierra Loma-L27 5/26/19 1630 54.6   17.7 48.7   6.3 80   26 5.4   0.1 N | 4 9.3   2.1 0.00 0.09 51.4   0.7 62.6   11.3
Simmerhorn (SIM) 5/17/19 1100 56.9   1.8 47.9   2.8 72   13 - - - - - 50.5   0.2 57.4   3.7
Sloughhouse (SLH) 5/26/19 1600 63.1   7.2 42.8   10.4 47   7 6.2   1.5 SW | 231 12.1   1.7 0.00 0.05 50.9   1.3 63.9   8.0
5 Wells 5/26/19 1630 62.5   9.2 43.1   10.8 49   4 7.7   1.3 WSW | 237 15.6   3.5 0.00 0.04 52.1   1.4 64.7   7.5
Max     69.4 50.1 84 11.5 - 20.4 0.00 0.20 52.6 71.3
Avg     60.7 45.4 59 5.9 - 11.3 0.00 - - -
Min     54.6 41.2 39 2.5 - 5.8 0.00 0.03 49.8 62.2